createdAt,value
2018-01-08T00:00:30.889Z,18.73
2018-01-08T00:02:59.993Z,18.13
2018-01-08T00:05:29.174Z,19.80
2018-01-08T00:07:57.525Z,17.33
2018-01-08T00:10:25.976Z,20.50
2018-01-08T00:12:54.301Z,18.60
2018-01-08T00:15:23.436Z,18.60
2018-01-08T00:17:51.777Z,20.10
2018-01-08T00:20:20.957Z,18.67
2018-01-08T00:22:49.313Z,17.67
2018-01-08T00:25:17.677Z,19.57
2018-01-08T00:27:46.043Z,21.83
2018-01-08T00:30:14.460Z,19.07
2018-01-08T00:32:42.823Z,20.03
2018-01-08T00:35:11.165Z,19.93
2018-01-08T00:37:39.508Z,20.57
2018-01-08T00:40:07.866Z,18.97
2018-01-08T00:42:36.203Z,19.77
2018-01-08T00:45:04.221Z,20.20
2018-01-08T00:47:32.576Z,20.87
2018-01-08T00:50:00.900Z,20.50
2018-01-08T00:52:29.232Z,20.27
2018-01-08T00:54:59.341Z,19.93
2018-01-08T00:57:28.361Z,18.67
2018-01-08T00:59:57.464Z,19.17
2018-01-08T01:02:27.037Z,20.30
2018-01-08T01:04:56.812Z,20.27
2018-01-08T01:07:25.172Z,20.53
2018-01-08T01:09:54.397Z,20.93
2018-01-08T01:12:22.741Z,21.33
2018-01-08T01:14:51.913Z,19.47
2018-01-08T01:17:20.256Z,21.37
2018-01-08T01:19:48.675Z,19.17
2018-01-08T01:22:17.793Z,17.50
2018-01-08T01:24:46.141Z,18.23
2018-01-08T01:27:14.505Z,20.13
2018-01-08T01:29:42.876Z,21.43
2018-01-08T01:32:11.252Z,21.33
2018-01-08T01:34:39.820Z,18.43
2018-01-08T01:37:08.161Z,16.77
2018-01-08T01:39:36.520Z,18.73
2018-01-08T01:42:05.615Z,17.80
2018-01-08T01:44:34.889Z,13.20
2018-01-08T01:47:03.225Z,20.27
2018-01-08T01:49:31.639Z,18.37
2018-01-08T01:51:59.992Z,20.13
2018-01-08T01:54:29.166Z,20.83
2018-01-08T01:56:57.215Z,20.17
2018-01-08T01:59:26.865Z,21.63
2018-01-08T02:01:55.210Z,18.97
2018-01-08T02:04:23.564Z,19.77
2018-01-08T02:06:52.659Z,18.10
2018-01-08T02:09:21.912Z,19.80
2018-01-08T02:11:50.267Z,18.63
2018-01-08T02:14:18.597Z,20.20
2018-01-08T02:16:46.957Z,15.07
2018-01-08T02:19:15.331Z,18.00
2018-01-08T02:21:43.734Z,20.33
2018-01-08T02:24:12.168Z,19.50
2018-01-08T02:26:40.514Z,17.10
2018-01-08T02:29:09.753Z,20.13
2018-01-08T02:31:38.100Z,20.37
2018-01-08T02:34:06.438Z,18.63
2018-01-08T02:36:34.788Z,19.67
2018-01-08T02:39:02.680Z,21.13
2018-01-08T02:41:31.028Z,19.60
2018-01-08T02:43:59.431Z,17.83
2018-01-08T02:46:28.625Z,18.20
2018-01-08T02:48:57.600Z,15.83
2018-01-08T02:51:26.146Z,20.10
2018-01-08T02:53:54.651Z,20.03
2018-01-08T02:56:23.009Z,20.30
2018-01-08T02:58:51.345Z,15.63
2018-01-08T03:01:20.473Z,15.93
2018-01-08T03:03:48.826Z,20.23
2018-01-08T03:06:17.928Z,17.10
2018-01-08T03:08:46.274Z,10.63
2018-01-08T03:11:14.597Z,17.23
2018-01-08T03:13:43.031Z,19.47
2018-01-08T03:16:11.371Z,19.80
2018-01-08T03:18:39.716Z,13.23
2018-01-08T03:21:08.066Z,19.57
2018-01-08T03:23:37.227Z,19.37
2018-01-08T03:26:06.356Z,17.37
2018-01-08T03:28:35.528Z,18.37
2018-01-08T03:31:03.894Z,16.57
2018-01-08T03:33:32.311Z,17.50
2018-01-08T03:36:01.411Z,16.87
2018-01-08T03:38:30.584Z,18.23
2018-01-08T03:40:58.924Z,19.37
2018-01-08T03:43:27.996Z,12.80
2018-01-08T03:45:56.917Z,18.53
2018-01-08T03:48:26.113Z,19.23
2018-01-08T03:50:54.452Z,17.90
2018-01-08T03:53:22.870Z,15.67
2018-01-08T03:55:51.281Z,18.77
2018-01-08T03:58:19.675Z,15.77
2018-01-08T04:00:48.779Z,16.13
2018-01-08T04:03:17.221Z,18.63
2018-01-08T04:05:45.566Z,18.80
2018-01-08T04:08:14.078Z,16.00
2018-01-08T04:10:42.410Z,18.93
2018-01-08T04:13:10.823Z,19.83
2018-01-08T04:15:39.181Z,18.67
2018-01-08T04:18:07.527Z,18.37
2018-01-08T04:20:35.874Z,16.93
2018-01-08T04:23:04.990Z,12.13
2018-01-08T04:25:33.323Z,15.83
2018-01-08T04:28:01.779Z,19.57
2018-01-08T04:30:30.124Z,18.37
2018-01-08T04:32:58.901Z,17.80
2018-01-08T04:35:29.001Z,14.97
2018-01-08T04:37:58.046Z,10.30
2018-01-08T04:40:27.204Z,18.80
2018-01-08T04:42:56.845Z,14.07
2018-01-08T04:45:25.198Z,9.10
2018-01-08T04:47:53.542Z,11.30
2018-01-08T04:50:21.904Z,10.80
2018-01-08T04:52:51.163Z,18.70
2018-01-08T04:55:19.506Z,19.30
2018-01-08T04:57:48.616Z,17.03
2018-01-08T05:00:17.723Z,12.70
2018-01-08T05:02:46.192Z,12.93
2018-01-08T05:05:14.549Z,16.87
2018-01-08T05:07:43.652Z,18.07
2018-01-08T05:10:12.763Z,15.03
2018-01-08T05:12:41.176Z,15.73
2018-01-08T05:15:09.517Z,15.87
2018-01-08T05:17:37.966Z,16.73
2018-01-08T05:20:06.317Z,17.40
2018-01-08T05:22:35.617Z,15.43
2018-01-08T05:25:03.965Z,7.17
2018-01-08T05:27:32.400Z,12.80
2018-01-08T05:30:00.750Z,17.77
2018-01-08T05:32:30.064Z,19.03
2018-01-08T05:34:58.410Z,21.03
2018-01-08T05:37:26.864Z,18.73
2018-01-08T05:39:55.200Z,18.43
2018-01-08T05:42:24.577Z,19.53
2018-01-08T05:44:52.931Z,19.37
2018-01-08T05:47:21.324Z,18.53
2018-01-08T05:49:49.658Z,18.63
2018-01-08T05:52:18.055Z,13.87
2018-01-08T05:54:46.404Z,17.93
2018-01-08T05:57:15.648Z,7.67
2018-01-08T05:59:44.004Z,10.13
2018-01-08T06:02:13.550Z,10.30
2018-01-08T06:04:41.900Z,15.17
2018-01-08T06:07:10.421Z,16.87
2018-01-08T06:09:38.746Z,19.47
2018-01-08T06:12:07.075Z,14.80
2018-01-08T06:14:35.428Z,14.67
2018-01-08T06:17:03.884Z,16.37
2018-01-08T06:19:32.225Z,15.47
2018-01-08T06:22:01.392Z,16.13
2018-01-08T06:24:29.749Z,10.47
2018-01-08T06:26:58.340Z,18.33
2018-01-08T06:29:27.029Z,20.47
2018-01-08T06:31:55.402Z,20.13
2018-01-08T06:34:23.742Z,19.27
2018-01-08T06:36:52.130Z,19.93
2018-01-08T06:39:20.484Z,18.63
2018-01-08T06:41:48.858Z,16.03
2018-01-08T06:44:17.220Z,10.47
2018-01-08T06:46:46.392Z,15.53
2018-01-08T06:49:14.734Z,16.17
2018-01-08T06:51:43.151Z,9.47
2018-01-08T06:54:11.496Z,15.33
2018-01-08T06:56:39.921Z,14.10
2018-01-08T06:59:08.251Z,16.47
2018-01-08T07:01:36.708Z,11.37
2018-01-08T07:04:05.035Z,15.83
2018-01-08T07:06:33.410Z,9.03
2018-01-08T07:09:01.785Z,13.63
2018-01-08T07:11:30.166Z,10.83
2018-01-08T07:13:58.332Z,13.47
2018-01-08T07:16:27.088Z,7.93
2018-01-08T07:18:55.796Z,11.27
2018-01-08T07:21:23.926Z,14.27
2018-01-08T07:23:52.266Z,12.37
2018-01-08T07:26:20.621Z,19.63
2018-01-08T07:28:49.750Z,13.17
2018-01-08T07:31:18.881Z,12.70
2018-01-08T07:33:47.211Z,10.80
2018-01-08T07:36:15.578Z,11.93
2018-01-08T07:38:43.946Z,14.23
2018-01-08T07:41:12.346Z,11.33
2018-01-08T07:43:40.679Z,12.53
2018-01-08T07:46:09.075Z,16.33
2018-01-08T07:48:37.436Z,16.30
2018-01-08T07:51:05.838Z,17.73
2018-01-08T07:53:34.174Z,16.67
2018-01-08T07:56:02.535Z,16.80
2018-01-08T07:58:30.858Z,9.73
2018-01-08T08:00:59.316Z,12.50
2018-01-08T08:03:27.682Z,15.93
2018-01-08T08:05:56.235Z,14.50
2018-01-08T08:08:25.359Z,20.53
2018-01-08T08:10:53.705Z,17.50
2018-01-08T08:13:22.813Z,17.40
2018-01-08T08:15:51.245Z,15.83
2018-01-08T08:18:19.592Z,17.87
2018-01-08T08:20:47.995Z,20.87
2018-01-08T08:23:16.350Z,20.77
2018-01-08T08:25:44.693Z,17.87
2018-01-08T08:28:13.807Z,17.73
2018-01-08T08:30:42.237Z,20.13
2018-01-08T08:33:10.600Z,10.33
2018-01-08T08:35:39.152Z,20.03
2018-01-08T08:38:07.496Z,18.13
2018-01-08T08:40:36.610Z,17.93
2018-01-08T08:43:04.986Z,16.43
2018-01-08T08:45:33.313Z,20.00
2018-01-08T08:48:01.760Z,13.87
2018-01-08T08:50:30.119Z,15.13
2018-01-08T08:52:58.479Z,19.40
2018-01-08T08:55:28.441Z,21.07
2018-01-08T08:57:57.706Z,19.47
2018-01-08T09:00:26.492Z,20.60
2018-01-08T09:02:55.083Z,21.63
2018-01-08T09:05:23.449Z,21.13
2018-01-08T09:07:51.783Z,20.80
2018-01-08T09:10:20.130Z,20.17
2018-01-08T09:12:48.590Z,20.53
2018-01-08T09:15:16.945Z,21.30
2018-01-08T09:17:46.062Z,20.10
2018-01-08T09:20:14.397Z,19.20
2018-01-08T09:22:42.856Z,17.97
2018-01-08T09:25:11.199Z,20.57
2018-01-08T09:27:39.547Z,16.63
2018-01-08T09:30:08.654Z,19.17
2018-01-08T09:32:37.038Z,18.43
2018-01-08T09:35:05.406Z,19.60
2018-01-08T09:37:34.577Z,13.13
2018-01-08T09:40:02.906Z,18.30
2018-01-08T09:42:32.332Z,13.83
2018-01-08T09:45:00.810Z,17.73
2018-01-08T09:47:29.156Z,20.30
2018-01-08T09:49:58.128Z,11.93
2018-01-08T09:52:27.763Z,12.67
2018-01-08T09:54:55.770Z,9.77
2018-01-08T09:57:24.134Z,15.90
2018-01-08T09:59:52.533Z,12.90
2018-01-08T10:02:19.737Z,11.00
2018-01-08T10:04:59.200Z,11.27
2018-01-08T10:07:38.853Z,17.20
2018-01-08T10:10:18.435Z,14.17
2018-01-08T10:12:57.958Z,18.17
2018-01-08T10:15:37.794Z,9.87
2018-01-08T10:18:17.610Z,18.33
2018-01-08T10:20:45.960Z,13.23
2018-01-08T10:23:14.371Z,16.53
2018-01-08T10:25:42.716Z,19.10
2018-01-08T10:28:11.171Z,20.07
2018-01-08T10:30:39.180Z,12.13
2018-01-08T10:33:07.204Z,16.50
2018-01-08T10:35:35.985Z,14.60
2018-01-08T10:38:04.824Z,19.27
2018-01-08T10:40:33.185Z,15.97
2018-01-08T10:43:07.155Z,17.93
2018-01-08T10:45:41.736Z,13.27
2018-01-08T10:48:16.385Z,17.63
2018-01-08T10:50:50.816Z,16.07
2018-01-08T10:53:29.795Z,21.00
2018-01-08T10:55:58.645Z,13.97
2018-01-08T10:58:28.286Z,11.80
2018-01-08T11:01:02.088Z,16.17
2018-01-08T11:03:36.524Z,16.17
2018-01-08T11:06:05.770Z,20.33
2018-01-08T11:08:34.945Z,19.97
2018-01-08T11:11:03.144Z,12.73
2018-01-08T11:13:32.299Z,11.50
2018-01-08T11:16:00.812Z,11.10
2018-01-08T11:18:29.927Z,12.43
2018-01-08T11:20:59.198Z,12.17
2018-01-08T11:23:27.830Z,16.33
2018-01-08T11:25:56.603Z,14.37
2018-01-08T11:28:24.941Z,12.63
2018-01-08T11:30:53.317Z,14.27
2018-01-08T11:33:21.409Z,11.43
2018-01-08T11:35:49.862Z,9.17
2018-01-08T11:38:17.584Z,15.27
2018-01-08T11:40:45.260Z,8.57
2018-01-08T11:43:12.989Z,6.27
2018-01-08T11:45:40.697Z,10.97
2018-01-08T11:48:08.489Z,11.20
2018-01-08T11:50:36.934Z,8.37
2018-01-08T11:53:04.689Z,9.07
2018-01-08T11:55:32.368Z,8.37
2018-01-08T11:58:00.126Z,12.37
2018-01-08T12:00:28.540Z,10.73
2018-01-08T12:02:57.981Z,5.57
2018-01-08T12:05:25.652Z,8.93
2018-01-08T12:07:54.150Z,11.57
2018-01-08T12:10:21.873Z,6.70
2018-01-08T12:12:49.634Z,8.97
2018-01-08T12:15:17.323Z,8.60
2018-01-08T12:17:45.029Z,11.67
2018-01-08T12:20:14.179Z,9.90
2018-01-08T12:22:43.441Z,5.10
2018-01-08T12:25:12.544Z,5.87
2018-01-08T12:27:40.572Z,7.00
2018-01-08T12:30:08.770Z,10.17
2018-01-08T12:32:37.616Z,10.87
2018-01-08T12:35:05.978Z,9.50
2018-01-08T12:37:34.358Z,7.57
2018-01-08T12:40:02.781Z,13.47
2018-01-08T12:42:31.881Z,10.13
2018-01-08T12:45:00.643Z,9.87
2018-01-08T12:47:29.916Z,10.63
2018-01-08T12:49:58.003Z,8.37
2018-01-08T12:52:26.501Z,11.73
2018-01-08T12:54:54.541Z,9.77
2018-01-08T12:57:22.556Z,9.87
2018-01-08T12:59:51.692Z,8.73
2018-01-08T13:02:19.734Z,6.03
2018-01-08T13:04:48.308Z,8.83
2018-01-08T13:07:16.128Z,9.50
2018-01-08T13:09:44.617Z,8.50
2018-01-08T13:12:12.955Z,11.33
2018-01-08T13:14:41.315Z,7.50
2018-01-08T13:17:09.915Z,11.40
2018-01-08T13:19:38.309Z,10.83
2018-01-08T13:22:06.330Z,7.77
2018-01-08T13:24:35.472Z,7.83
2018-01-08T13:27:03.506Z,9.33
2018-01-08T13:29:32.676Z,12.57
2018-01-08T13:32:00.687Z,8.20
2018-01-08T13:34:28.994Z,12.20
2018-01-08T13:36:57.331Z,8.97
2018-01-08T13:39:25.678Z,6.77
2018-01-08T13:41:53.365Z,9.83
2018-01-08T13:44:22.533Z,10.43
2018-01-08T13:46:50.235Z,10.97
2018-01-08T13:49:17.910Z,8.80
2018-01-08T13:51:45.588Z,13.20
2018-01-08T13:54:13.333Z,10.00
2018-01-08T13:56:41.046Z,10.27
2018-01-08T13:59:09.495Z,7.87
2018-01-08T14:01:37.180Z,10.87
2018-01-08T14:04:04.733Z,9.23
2018-01-08T14:06:32.411Z,8.10
2018-01-08T14:09:00.928Z,12.97
2018-01-08T14:11:28.712Z,14.83
2018-01-08T14:13:57.967Z,12.53
2018-01-08T14:16:27.757Z,9.60
2018-01-08T14:18:56.588Z,9.83
2018-01-08T14:21:24.920Z,9.10
2018-01-08T14:23:53.397Z,6.93
2018-01-08T14:26:21.732Z,9.53
2018-01-08T14:28:50.145Z,6.50
2018-01-08T14:31:18.489Z,12.10
2018-01-08T14:33:46.567Z,11.13
2018-01-08T14:36:14.931Z,11.93
2018-01-08T14:38:43.280Z,12.37
2018-01-08T14:41:12.395Z,12.83
2018-01-08T14:43:40.768Z,10.30
2018-01-08T14:46:09.150Z,5.00
2018-01-08T14:48:37.642Z,9.57
2018-01-08T14:51:05.670Z,8.53
2018-01-08T14:53:34.537Z,7.33
2018-01-08T14:56:02.878Z,9.77
2018-01-08T14:58:30.890Z,9.77
2018-01-08T15:00:59.148Z,11.10
2018-01-08T15:03:27.516Z,8.23
2018-01-08T15:05:55.866Z,10.03
2018-01-08T15:08:24.309Z,8.63
2018-01-08T15:10:52.745Z,9.33
2018-01-08T15:13:20.799Z,8.57
2018-01-08T15:15:48.516Z,8.10
2018-01-08T15:18:16.662Z,6.90
2018-01-08T15:20:45.180Z,7.67
2018-01-08T15:23:13.697Z,8.63
2018-01-08T15:25:41.718Z,11.57
2018-01-08T15:28:10.934Z,9.10
2018-01-08T15:30:40.042Z,13.03
2018-01-08T15:33:08.395Z,13.10
2018-01-08T15:35:37.515Z,6.90
2018-01-08T15:38:05.747Z,8.17
2018-01-08T15:40:34.114Z,15.43
2018-01-08T15:43:02.521Z,8.53
2018-01-08T15:45:31.631Z,11.83
2018-01-08T15:48:00.130Z,11.53
2018-01-08T15:50:29.342Z,12.77
2018-01-08T15:52:57.701Z,8.83
2018-01-08T15:55:26.030Z,13.10
2018-01-08T15:57:54.479Z,8.53
2018-01-08T16:00:22.822Z,13.63
2018-01-08T16:02:51.166Z,15.83
2018-01-08T16:05:19.507Z,11.33
2018-01-08T16:07:47.944Z,10.57
2018-01-08T16:10:17.046Z,13.30
2018-01-08T16:12:45.511Z,10.63
2018-01-08T16:15:14.616Z,8.57
2018-01-08T16:17:43.896Z,11.23
2018-01-08T16:20:13.016Z,10.93
2018-01-08T16:22:41.455Z,9.20
2018-01-08T16:25:09.819Z,7.93
2018-01-08T16:27:38.238Z,7.07
2018-01-08T16:30:06.783Z,13.90
2018-01-08T16:32:35.172Z,8.20
2018-01-08T16:35:03.522Z,17.33
2018-01-08T16:37:31.874Z,16.87
2018-01-08T16:40:00.231Z,11.03
2018-01-08T16:42:29.567Z,10.37
2018-01-08T16:44:58.280Z,15.97
2018-01-08T16:47:27.542Z,12.23
2018-01-08T16:49:55.897Z,8.23
2018-01-08T16:52:24.314Z,9.23
2018-01-08T16:54:52.678Z,14.47
2018-01-08T16:57:21.120Z,7.87
2018-01-08T16:59:50.214Z,9.57
2018-01-08T17:02:19.439Z,13.07
2018-01-08T17:04:47.798Z,13.47
2018-01-08T17:07:16.969Z,12.10
2018-01-08T17:09:45.308Z,12.77
2018-01-08T17:12:13.706Z,9.03
2018-01-08T17:14:42.060Z,9.30
2018-01-08T17:17:10.469Z,8.20
2018-01-08T17:19:38.828Z,11.37
2018-01-08T17:22:07.231Z,9.13
2018-01-08T17:24:35.574Z,11.97
2018-01-08T17:27:03.987Z,14.17
2018-01-08T17:29:32.341Z,12.03
2018-01-08T17:32:00.830Z,12.33
2018-01-08T17:34:30.013Z,9.23
2018-01-08T17:36:59.122Z,12.00
2018-01-08T17:39:27.941Z,9.67
2018-01-08T17:41:57.532Z,8.47
2018-01-08T17:44:25.901Z,10.53
2018-01-08T17:46:54.343Z,8.00
2018-01-08T17:49:22.679Z,8.40
2018-01-08T17:51:53.519Z,13.80
2018-01-08T17:54:22.619Z,10.07
2018-01-08T17:56:51.580Z,9.20
2018-01-08T17:59:19.930Z,11.17
2018-01-08T18:01:48.359Z,10.13
2018-01-08T18:04:17.440Z,9.70
2018-01-08T18:06:45.873Z,9.40
2018-01-08T18:09:14.225Z,9.67
2018-01-08T18:11:43.343Z,10.80
2018-01-08T18:14:11.711Z,11.43
2018-01-08T18:16:40.121Z,10.87
2018-01-08T18:19:08.464Z,11.20
2018-01-08T18:21:37.041Z,9.77
2018-01-08T18:24:05.377Z,9.63
2018-01-08T18:26:33.767Z,8.80
2018-01-08T18:29:02.145Z,11.90
2018-01-08T18:31:30.547Z,14.20
2018-01-08T18:33:58.889Z,9.77
2018-01-08T18:36:28.512Z,15.03
2018-01-08T18:38:57.454Z,14.40
2018-01-08T18:41:25.881Z,7.67
2018-01-08T18:43:54.351Z,8.40
2018-01-08T18:46:22.729Z,10.30
2018-01-08T18:48:51.173Z,11.83
2018-01-08T18:51:19.673Z,9.33
2018-01-08T18:53:48.037Z,11.77
2018-01-08T18:56:16.580Z,12.53
2018-01-08T18:58:45.728Z,11.30
2018-01-08T19:01:14.104Z,9.33
2018-01-08T19:03:42.266Z,12.97
2018-01-08T19:06:10.710Z,14.40
2018-01-08T19:08:39.887Z,7.87
2018-01-08T19:11:09.141Z,10.77
2018-01-08T19:13:37.547Z,13.97
2018-01-08T19:16:05.981Z,10.73
2018-01-08T19:18:34.501Z,13.17
2018-01-08T19:21:03.454Z,14.67
2018-01-08T19:23:32.068Z,14.37
2018-01-08T19:26:01.414Z,10.30
2018-01-08T19:28:30.576Z,10.03
2018-01-08T19:30:59.064Z,11.73
2018-01-08T19:33:28.263Z,14.20
2018-01-08T19:35:56.796Z,10.93
2018-01-08T19:38:25.325Z,10.37
2018-01-08T19:40:54.284Z,8.17
2018-01-08T19:43:22.764Z,11.27
2018-01-08T19:45:51.211Z,10.33
2018-01-08T19:48:19.632Z,13.63
2018-01-08T19:50:49.050Z,15.37
2018-01-08T19:53:17.485Z,13.40
2018-01-08T19:55:46.053Z,11.20
2018-01-08T19:58:14.557Z,6.87
2018-01-08T20:00:43.420Z,14.10
2018-01-08T20:03:11.911Z,14.80
2018-01-08T20:05:40.464Z,12.87
2018-01-08T20:08:09.852Z,10.93
2018-01-08T20:10:38.313Z,12.57
2018-01-08T20:13:06.861Z,11.73
2018-01-08T20:15:35.478Z,13.10
2018-01-08T20:18:04.704Z,15.73
2018-01-08T20:20:33.956Z,11.83
2018-01-08T20:23:02.569Z,17.33
2018-01-08T20:25:31.067Z,11.30
2018-01-08T20:27:59.757Z,12.03
2018-01-08T20:30:28.522Z,10.77
2018-01-08T20:32:57.779Z,10.00
2018-01-08T20:35:26.224Z,14.13
2018-01-08T20:37:55.416Z,13.97
2018-01-08T20:40:24.652Z,12.97
2018-01-08T20:42:53.251Z,9.90
2018-01-08T20:45:22.083Z,9.77
2018-01-08T20:47:50.563Z,10.07
2018-01-08T20:50:19.849Z,10.80
2018-01-08T20:52:48.475Z,11.43
2018-01-08T20:55:17.426Z,10.27
2018-01-08T20:57:45.888Z,13.00
2018-01-08T21:00:14.229Z,11.10
2018-01-08T21:02:42.807Z,11.50
2018-01-08T21:05:11.427Z,12.13
2018-01-08T21:07:39.840Z,8.53
2018-01-08T21:10:08.435Z,10.70
2018-01-08T21:12:37.619Z,14.37
2018-01-08T21:15:06.020Z,11.10
2018-01-08T21:17:35.130Z,10.13
2018-01-08T21:20:03.270Z,9.67
2018-01-08T21:22:32.378Z,9.40
2018-01-08T21:25:01.575Z,9.60
2018-01-08T21:27:30.703Z,7.83
2018-01-08T21:29:59.600Z,10.77
2018-01-08T21:32:27.743Z,12.47
2018-01-08T21:34:56.099Z,12.83
2018-01-08T21:37:24.594Z,12.83
2018-01-08T21:39:53.767Z,11.70
2018-01-08T21:42:22.133Z,11.33
2018-01-08T21:44:50.641Z,12.60
2018-01-08T21:47:19.759Z,15.83
2018-01-08T21:49:48.111Z,11.67
2018-01-08T21:52:17.225Z,13.43
2018-01-08T21:54:45.602Z,12.37
2018-01-08T21:57:13.930Z,17.20
2018-01-08T21:59:42.422Z,12.00
2018-01-08T22:02:10.464Z,11.47
2018-01-08T22:04:40.524Z,11.93
2018-01-08T22:07:08.870Z,13.50
2018-01-08T22:09:37.217Z,13.87
2018-01-08T22:12:05.568Z,13.23
2018-01-08T22:14:34.766Z,9.50
2018-01-08T22:17:03.890Z,13.53
2018-01-08T22:19:32.244Z,15.87
2018-01-08T22:22:01.339Z,11.93
2018-01-08T22:24:30.591Z,14.87
2018-01-08T22:26:59.409Z,7.40
2018-01-08T22:29:28.417Z,13.10
2018-01-08T22:31:57.544Z,12.17
2018-01-08T22:34:25.987Z,12.77
2018-01-08T22:36:55.103Z,13.07
2018-01-08T22:39:23.444Z,13.47
2018-01-08T22:41:51.792Z,12.20
2018-01-08T22:44:20.208Z,10.23
2018-01-08T22:46:49.324Z,11.70
2018-01-08T22:49:17.689Z,10.67
2018-01-08T22:51:46.813Z,13.30
2018-01-08T22:54:15.151Z,11.93
2018-01-08T22:56:44.278Z,17.43
2018-01-08T22:59:12.630Z,11.87
2018-01-08T23:01:41.735Z,11.93
2018-01-08T23:04:10.928Z,9.20
2018-01-08T23:06:40.027Z,13.73
2018-01-08T23:09:09.163Z,13.23
2018-01-08T23:11:37.529Z,11.60
2018-01-08T23:14:05.957Z,13.20
2018-01-08T23:16:34.305Z,8.37
2018-01-08T23:19:02.669Z,9.47
2018-01-08T23:21:31.035Z,8.10
2018-01-08T23:23:59.776Z,11.27
2018-01-08T23:26:29.212Z,11.73
2018-01-08T23:28:59.853Z,16.33
2018-01-08T23:31:29.153Z,10.43
2018-01-08T23:33:57.888Z,10.80
2018-01-08T23:36:26.240Z,9.33
2018-01-08T23:38:55.356Z,11.30
2018-01-08T23:41:23.679Z,8.47
2018-01-08T23:43:52.040Z,15.23
2018-01-08T23:46:21.166Z,12.93
2018-01-08T23:48:49.594Z,8.43
2018-01-08T23:51:17.953Z,15.00
2018-01-08T23:53:46.340Z,12.03
2018-01-08T23:56:14.681Z,9.47
2018-01-08T23:58:43.099Z,5.90
